Time;durP1;ratioP1;P1;durP2;ratioP2;P2;SDS_P1;SDS_P2;PMS_P1;PMS_P2;Temp;Humidity;BMP_temperature;BMP_pressure;BME280_temperature;BME280_humidity;BME280_pressure;Samples;Min_cycle;Max_cycle;Signal;HPM_P1;HPM_P2
2023/12/25 00:00:54;;;;;;;12.90;2.53;;;9.50;99.90;;;;;;4960597;28;20225;-85
2023/12/25 00:03:21;;;;;;;9.53;2.10;;;9.50;99.90;;;;;;4960228;28;20244;-85
2023/12/25 00:05:48;;;;;;;12.63;2.30;;;9.50;99.90;;;;;;4958509;28;20225;-85
2023/12/25 00:08:15;;;;;;;10.97;2.50;;;9.40;99.90;;;;;;4958819;28;20253;-86
2023/12/25 00:10:42;;;;;;;4.93;2.00;;;9.40;99.90;;;;;;4963302;28;20369;-84
2023/12/25 00:13:11;;;;;;;6.53;1.73;;;9.40;99.90;;;;;;4963289;28;20292;-85
2023/12/25 00:15:38;;;;;;;12.13;2.37;;;9.40;99.90;;;;;;4965553;28;20218;-85
2023/12/25 00:18:05;;;;;;;11.23;2.17;;;9.40;99.90;;;;;;4959680;28;20313;-84
2023/12/25 00:20:32;;;;;;;9.20;2.23;;;9.40;99.90;;;;;;4953926;28;20225;-83
2023/12/25 00:23:00;;;;;;;5.53;1.80;;;9.40;99.90;;;;;;4964150;28;20258;-84
2023/12/25 00:25:27;;;;;;;8.67;1.73;;;9.40;99.90;;;;;;4964596;28;20299;-84
2023/12/25 00:27:54;;;;;;;7.13;1.73;;;9.40;99.90;;;;;;4963188;28;20467;-84
2023/12/25 00:30:22;;;;;;;7.17;1.93;;;9.40;99.90;;;;;;4965366;28;20353;-84
2023/12/25 00:32:49;;;;;;;6.43;2.13;;;9.40;99.90;;;;;;4960866;28;20261;-83
2023/12/25 00:35:16;;;;;;;5.97;1.83;;;9.50;99.90;;;;;;4963262;28;20219;-84
2023/12/25 00:37:43;;;;;;;9.83;2.23;;;9.50;99.90;;;;;;4969359;28;20238;-84
2023/12/25 00:40:10;;;;;;;7.30;2.10;;;9.50;99.90;;;;;;4960483;28;20265;-83
2023/12/25 00:42:37;;;;;;;5.97;1.57;;;9.50;99.90;;;;;;4956781;28;20713;-83
2023/12/25 00:45:04;;;;;;;5.07;1.50;;;9.50;99.90;;;;;;4993384;28;20233;-83
2023/12/25 00:47:32;;;;;;;7.50;2.07;;;9.50;99.90;;;;;;4960923;28;20229;-84
2023/12/25 00:49:59;;;;;;;6.13;1.37;;;9.50;99.90;;;;;;4961974;28;20226;-84
2023/12/25 00:52:26;;;;;;;7.63;2.03;;;9.50;99.90;;;;;;4960136;28;20236;-83
2023/12/25 00:54:53;;;;;;;5.60;1.27;;;9.50;99.90;;;;;;4962894;28;20226;-82
2023/12/25 00:57:20;;;;;;;8.00;1.73;;;9.50;99.90;;;;;;4964552;28;20233;-83
2023/12/25 00:59:47;;;;;;;3.60;1.30;;;9.50;99.90;;;;;;4960581;28;20362;-83
2023/12/25 01:02:14;;;;;;;5.80;1.60;;;9.50;99.90;;;;;;4960134;28;20307;-83
2023/12/25 01:04:42;;;;;;;5.07;1.60;;;9.50;99.90;;;;;;4962610;28;20237;-83
2023/12/25 01:07:09;;;;;;;3.87;1.60;;;9.50;99.90;;;;;;4963587;28;20377;-84
2023/12/25 01:09:36;;;;;;;6.10;1.20;;;9.50;99.90;;;;;;4977740;28;20299;-84
2023/12/25 01:12:03;;;;;;;4.60;1.37;;;9.50;99.90;;;;;;4960464;28;20345;-84
2023/12/25 01:14:29;;;;;;;5.30;1.70;;;9.50;99.90;;;;;;4961611;28;20486;-83
2023/12/25 01:16:57;;;;;;;6.63;1.50;;;9.50;99.90;;;;;;4959868;28;20348;-84
2023/12/25 01:19:23;;;;;;;3.70;1.13;;;9.50;99.90;;;;;;4974278;28;20481;-84
2023/12/25 01:21:51;;;;;;;8.10;1.40;;;9.50;99.90;;;;;;4989257;28;20764;-84
2023/12/25 01:24:18;;;;;;;6.97;1.40;;;9.50;99.90;;;;;;4962817;28;20308;-84
2023/12/25 01:26:46;;;;;;;6.87;1.60;;;9.50;99.90;;;;;;4967592;28;20626;-84
2023/12/25 01:29:12;;;;;;;6.63;1.20;;;9.60;99.90;;;;;;4965166;28;20435;-82
2023/12/25 01:31:41;;;;;;;4.77;1.40;;;9.60;99.90;;;;;;4964073;28;20225;-82
2023/12/25 01:34:08;;;;;;;4.53;1.77;;;9.60;99.90;;;;;;4960686;28;20633;-82
2023/12/25 01:36:35;;;;;;;8.40;2.00;;;9.60;99.90;;;;;;4966688;28;20303;-82
2023/12/25 01:39:04;;;;;;;8.67;1.67;;;9.60;99.90;;;;;;4965523;28;20294;-81
2023/12/25 01:41:30;;;;;;;3.87;1.23;;;9.60;99.90;;;;;;4961732;28;20258;-81
2023/12/25 01:43:57;;;;;;;4.57;1.30;;;9.60;99.90;;;;;;4967493;28;20325;-81
2023/12/25 01:46:24;;;;;;;5.20;1.30;;;9.70;99.90;;;;;;4963773;28;20246;-81
2023/12/25 01:48:52;;;;;;;3.70;1.33;;;9.70;99.90;;;;;;4961187;28;20716;-81
2023/12/25 01:51:22;;;;;;;6.83;1.37;;;9.70;99.90;;;;;;4970436;28;20397;-82
2023/12/25 01:53:49;;;;;;;6.43;1.27;;;9.70;99.90;;;;;;4962908;28;20595;-83
2023/12/25 01:56:18;;;;;;;4.63;1.20;;;9.70;99.90;;;;;;4963277;28;20539;-83
2023/12/25 01:58:44;;;;;;;7.27;1.30;;;9.70;99.90;;;;;;4960710;28;20237;-83
2023/12/25 02:01:12;;;;;;;6.43;1.57;;;9.70;99.90;;;;;;4957811;28;20327;-83
2023/12/25 02:03:38;;;;;;;8.10;1.83;;;9.70;99.90;;;;;;4964878;28;20753;-82
2023/12/25 02:06:06;;;;;;;7.30;1.30;;;9.80;99.90;;;;;;4959767;28;20321;-82
2023/12/25 02:08:34;;;;;;;7.50;1.70;;;9.80;99.90;;;;;;4963049;28;20628;-83
2023/12/25 02:11:03;;;;;;;5.30;1.50;;;9.80;99.90;;;;;;4961377;28;20226;-82
2023/12/25 02:13:31;;;;;;;5.20;1.23;;;9.80;99.90;;;;;;4962574;28;20223;-83
2023/12/25 02:15:58;;;;;;;3.97;1.20;;;9.80;99.90;;;;;;4955787;28;20262;-82
2023/12/25 02:18:26;;;;;;;4.43;1.70;;;9.80;99.90;;;;;;4954832;28;20238;-82
2023/12/25 02:20:56;;;;;;;5.00;1.47;;;9.80;99.90;;;;;;4956488;28;20785;-83
2023/12/25 02:23:26;;;;;;;3.30;1.17;;;9.80;99.90;;;;;;4963638;28;20839;-84
2023/12/25 02:25:57;;;;;;;5.27;1.20;;;9.90;99.90;;;;;;4957331;28;20483;-84
2023/12/25 02:28:24;;;;;;;5.93;2.13;;;9.90;99.90;;;;;;4960060;28;20659;-83
2023/12/25 02:30:52;;;;;;;6.53;1.63;;;9.90;99.90;;;;;;4957207;28;20227;-82
2023/12/25 02:33:18;;;;;;;8.57;1.73;;;9.90;99.90;;;;;;4960092;28;20586;-82
2023/12/25 02:35:45;;;;;;;8.57;1.90;;;9.90;99.90;;;;;;4961250;28;20261;-81
2023/12/25 02:38:12;;;;;;;4.87;1.30;;;9.90;99.90;;;;;;4956433;28;20233;-82
2023/12/25 02:40:39;;;;;;;6.10;1.57;;;9.90;99.90;;;;;;4958688;28;20293;-81
2023/12/25 02:43:08;;;;;;;5.07;1.57;;;9.90;99.90;;;;;;4957083;28;20234;-82
2023/12/25 02:45:35;;;;;;;7.57;1.63;;;9.90;99.90;;;;;;4964829;28;20306;-82
2023/12/25 02:48:02;;;;;;;7.40;1.40;;;9.90;99.90;;;;;;4989236;28;20308;-83
2023/12/25 02:50:29;;;;;;;6.83;1.20;;;9.90;99.90;;;;;;4958292;28;20226;-83
2023/12/25 02:52:55;;;;;;;6.83;1.70;;;9.90;99.90;;;;;;4962612;28;20218;-83
2023/12/25 02:55:22;;;;;;;5.93;1.63;;;9.90;99.90;;;;;;4959042;28;20223;-82
2023/12/25 02:57:49;;;;;;;5.63;1.80;;;9.90;99.90;;;;;;4963326;28;20245;-83
2023/12/25 03:00:18;;;;;;;9.30;2.03;;;9.90;99.90;;;;;;4958561;28;20306;-82
2023/12/25 03:02:45;;;;;;;6.50;1.60;;;9.90;99.90;;;;;;4957192;28;20227;-83
2023/12/25 03:05:12;;;;;;;6.33;2.00;;;9.90;99.90;;;;;;4956580;28;20312;-83
2023/12/25 03:07:39;;;;;;;7.07;2.17;;;9.90;99.90;;;;;;4959044;28;20702;-82
2023/12/25 03:10:07;;;;;;;7.90;1.80;;;9.90;99.90;;;;;;4964250;28;20223;-82
2023/12/25 03:12:34;;;;;;;10.97;1.97;;;9.90;99.90;;;;;;4959549;28;20698;-82
2023/12/25 03:15:00;;;;;;;6.23;1.60;;;9.90;99.90;;;;;;4960602;28;20314;-82
2023/12/25 03:17:28;;;;;;;7.17;1.63;;;9.90;99.90;;;;;;4960849;28;20245;-81
2023/12/25 03:19:55;;;;;;;7.53;1.77;;;9.80;99.90;;;;;;4966081;28;20516;-82
2023/12/25 03:22:22;;;;;;;5.30;2.00;;;9.80;99.90;;;;;;4962442;28;20618;-82
2023/12/25 03:24:49;;;;;;;7.33;2.57;;;9.80;99.90;;;;;;4964360;28;20308;-82
2023/12/25 03:27:16;;;;;;;6.07;1.67;;;9.70;99.90;;;;;;4959962;28;20226;-83
2023/12/25 03:29:42;;;;;;;9.50;1.97;;;9.70;99.90;;;;;;4959746;28;20812;-81
2023/12/25 03:32:09;;;;;;;11.70;2.07;;;9.60;99.90;;;;;;4960898;28;20765;-82
2023/12/25 03:34:47;;;;;;;8.43;1.70;;;9.60;99.90;;;;;;4960666;28;20226;-82
2023/12/25 03:37:14;;;;;;;9.47;1.87;;;9.60;99.90;;;;;;4963441;28;20782;-83
2023/12/25 03:39:41;;;;;;;8.40;2.20;;;9.60;99.90;;;;;;4960286;28;20226;-82
2023/12/25 03:42:08;;;;;;;8.27;1.97;;;9.60;99.90;;;;;;4959855;28;20331;-83
2023/12/25 03:44:34;;;;;;;9.90;1.90;;;9.50;99.90;;;;;;4962458;28;20316;-82
2023/12/25 03:47:02;;;;;;;10.57;2.37;;;9.50;99.90;;;;;;4952632;28;20723;-82
2023/12/25 03:49:29;;;;;;;7.43;1.90;;;9.50;99.90;;;;;;4976679;28;20233;-82
2023/12/25 03:51:57;;;;;;;8.10;2.43;;;9.50;99.90;;;;;;4955187;28;20253;-82
2023/12/25 03:54:25;;;;;;;8.57;2.30;;;9.40;99.90;;;;;;4960441;28;20329;-82
2023/12/25 03:56:52;;;;;;;11.17;2.07;;;9.40;99.90;;;;;;4965603;28;20507;-82
2023/12/25 03:59:19;;;;;;;8.87;2.10;;;9.40;99.90;;;;;;4981181;28;20313;-82
2023/12/25 04:01:46;;;;;;;7.40;2.23;;;9.40;99.90;;;;;;4957678;28;20230;-82
2023/12/25 04:04:14;;;;;;;8.87;2.13;;;9.40;99.90;;;;;;4957300;28;20218;-82
2023/12/25 04:06:41;;;;;;;9.73;2.07;;;9.40;99.90;;;;;;4957578;28;20230;-82
2023/12/25 04:09:10;;;;;;;9.47;2.43;;;9.30;99.90;;;;;;4977192;28;20226;-82
2023/12/25 04:11:37;;;;;;;10.80;2.60;;;9.30;99.90;;;;;;4957905;28;20257;-82
2023/12/25 04:14:04;;;;;;;10.50;2.53;;;9.30;99.90;;;;;;4987881;28;20523;-82
2023/12/25 04:16:31;;;;;;;9.57;1.87;;;9.30;99.90;;;;;;4958579;28;20313;-81
2023/12/25 04:18:58;;;;;;;8.27;2.30;;;9.30;99.90;;;;;;4959240;28;20236;-82
2023/12/25 04:21:26;;;;;;;8.70;2.17;;;9.30;99.90;;;;;;4953099;28;20241;-81
2023/12/25 04:23:53;;;;;;;10.23;2.23;;;9.20;99.90;;;;;;4961831;28;20232;-82
2023/12/25 04:26:23;;;;;;;10.10;2.47;;;9.20;99.90;;;;;;4954902;28;20457;-82
2023/12/25 04:28:49;;;;;;;15.10;3.13;;;9.20;99.90;;;;;;4959431;28;20732;-82
2023/12/25 04:31:17;;;;;;;8.03;2.43;;;9.20;99.90;;;;;;4975494;28;20218;-81
2023/12/25 04:33:44;;;;;;;11.33;3.10;;;9.20;99.90;;;;;;4956133;28;20234;-82
2023/12/25 04:36:12;;;;;;;8.53;2.40;;;9.20;99.90;;;;;;4959617;28;20304;-82
2023/12/25 04:38:39;;;;;;;11.90;2.40;;;9.20;99.90;;;;;;4957962;28;20502;-82
2023/12/25 04:41:07;;;;;;;9.63;2.60;;;9.20;99.90;;;;;;4958942;28;20255;-82
2023/12/25 04:43:35;;;;;;;11.03;2.80;;;9.30;99.90;;;;;;4958606;28;20748;-82
2023/12/25 04:46:03;;;;;;;8.40;2.67;;;9.30;99.90;;;;;;4958733;28;20225;-82
2023/12/25 04:48:30;;;;;;;8.93;2.53;;;9.30;99.90;;;;;;4955331;28;20336;-83
2023/12/25 04:50:57;;;;;;;10.30;2.37;;;9.30;99.90;;;;;;4956120;28;20692;-82
2023/12/25 04:53:24;;;;;;;9.70;2.60;;;9.20;99.90;;;;;;4958075;28;20297;-82
2023/12/25 04:55:51;;;;;;;13.40;2.60;;;9.20;99.90;;;;;;4957515;28;20323;-83
2023/12/25 04:58:18;;;;;;;10.53;2.63;;;9.20;99.90;;;;;;4959901;28;20321;-83
2023/12/25 05:00:46;;;;;;;10.50;2.70;;;9.20;99.90;;;;;;4961364;28;20846;-83
2023/12/25 05:03:13;;;;;;;11.67;2.77;;;9.20;99.90;;;;;;4960902;28;20813;-83
2023/12/25 05:05:40;;;;;;;15.73;3.33;;;9.20;99.90;;;;;;4964672;28;20294;-83
2023/12/25 05:08:07;;;;;;;12.07;2.97;;;9.20;99.90;;;;;;4960473;28;20254;-82
2023/12/25 05:10:33;;;;;;;10.10;3.40;;;9.20;99.90;;;;;;4959524;28;20226;-82
2023/12/25 05:13:01;;;;;;;13.33;2.93;;;9.10;99.90;;;;;;4957899;28;20245;-82
2023/12/25 05:15:28;;;;;;;8.50;2.73;;;9.10;99.90;;;;;;4992846;28;20264;-82
2023/12/25 05:17:56;;;;;;;14.87;3.93;;;9.10;99.90;;;;;;4961089;28;20245;-83
2023/12/25 05:20:23;;;;;;;9.23;2.57;;;9.10;99.90;;;;;;4962186;28;20258;-82
2023/12/25 05:22:50;;;;;;;11.60;3.30;;;9.10;99.90;;;;;;4958195;28;20324;-83
2023/12/25 05:25:17;;;;;;;12.17;3.07;;;9.10;99.90;;;;;;4981850;28;20302;-82
2023/12/25 05:27:44;;;;;;;11.10;2.97;;;9.10;99.90;;;;;;4965788;28;20245;-82
2023/12/25 05:30:11;;;;;;;12.30;3.17;;;9.10;99.90;;;;;;4961448;28;20324;-82
2023/12/25 05:32:38;;;;;;;13.00;3.67;;;9.10;99.90;;;;;;4960301;28;20313;-82
2023/12/25 05:35:07;;;;;;;12.80;2.70;;;9.00;99.90;;;;;;4960793;28;20236;-81
2023/12/25 05:37:34;;;;;;;15.63;2.73;;;9.00;99.90;;;;;;4967462;28;21046;-81
2023/12/25 05:40:01;;;;;;;10.20;3.10;;;8.90;99.90;;;;;;4963132;28;20317;-82
2023/12/25 05:42:28;;;;;;;14.80;3.40;;;8.90;99.90;;;;;;4958925;28;20740;-81
2023/12/25 05:44:54;;;;;;;10.93;3.17;;;8.80;99.90;;;;;;4968950;28;20257;-80
2023/12/25 05:47:21;;;;;;;10.27;2.73;;;8.80;99.90;;;;;;4965380;28;20283;-81
2023/12/25 05:49:48;;;;;;;16.10;3.30;;;8.80;99.90;;;;;;4981938;28;20232;-82
2023/12/25 05:52:16;;;;;;;15.57;3.83;;;8.70;99.90;;;;;;4959057;28;20225;-82
2023/12/25 05:54:43;;;;;;;13.00;2.87;;;8.70;99.90;;;;;;4977473;28;20317;-81
2023/12/25 05:57:11;;;;;;;10.67;2.77;;;8.70;99.90;;;;;;4959773;28;20264;-80
2023/12/25 05:59:38;;;;;;;15.27;4.07;;;8.70;99.90;;;;;;4964363;28;20256;-81
2023/12/25 06:02:04;;;;;;;14.07;3.07;;;8.70;99.90;;;;;;4963431;28;20230;-82
2023/12/25 06:04:31;;;;;;;11.67;3.27;;;8.70;99.90;;;;;;4955475;28;20389;-82
2023/12/25 06:06:58;;;;;;;16.03;3.50;;;8.70;99.90;;;;;;4958682;28;20321;-82
2023/12/25 06:09:26;;;;;;;13.07;3.40;;;8.70;99.90;;;;;;4956769;28;20602;-81
2023/12/25 06:11:53;;;;;;;15.20;3.70;;;8.70;99.90;;;;;;4960264;28;20230;-82
2023/12/25 06:14:20;;;;;;;11.80;3.27;;;8.70;99.90;;;;;;4961211;28;20794;-82
2023/12/25 06:16:46;;;;;;;12.20;2.80;;;8.70;99.90;;;;;;4959113;28;20221;-82
2023/12/25 06:19:13;;;;;;;13.90;3.00;;;8.70;99.90;;;;;;4960423;28;20803;-82
2023/12/25 06:21:40;;;;;;;11.60;3.30;;;8.70;99.90;;;;;;4962090;28;20284;-83
2023/12/25 06:24:07;;;;;;;12.50;3.43;;;8.70;99.90;;;;;;4961706;28;20218;-82
2023/12/25 06:26:35;;;;;;;15.90;4.00;;;8.70;99.90;;;;;;4963461;28;20576;-81
2023/12/25 06:29:02;;;;;;;10.23;2.87;;;8.70;99.90;;;;;;4960262;28;20820;-82
2023/12/25 06:31:28;;;;;;;14.10;3.47;;;8.70;99.90;;;;;;4967165;28;20493;-82
2023/12/25 06:33:55;;;;;;;12.33;3.17;;;8.70;99.90;;;;;;4959488;28;20234;-83
2023/12/25 06:36:22;;;;;;;18.57;3.30;;;8.60;99.90;;;;;;4964081;28;20292;-82
2023/12/25 06:38:49;;;;;;;14.43;4.00;;;8.60;99.90;;;;;;4963523;28;20249;-82
2023/12/25 06:41:16;;;;;;;15.80;3.90;;;8.60;99.90;;;;;;4960715;28;20233;-82
2023/12/25 06:43:44;;;;;;;20.63;4.03;;;8.60;99.90;;;;;;4962803;28;20832;-83
2023/12/25 06:46:12;;;;;;;12.53;3.43;;;8.60;99.90;;;;;;4989221;28;20226;-84
2023/12/25 06:48:38;;;;;;;13.57;3.97;;;8.60;99.90;;;;;;4965036;28;20225;-83
2023/12/25 06:51:08;;;;;;;19.13;4.23;;;8.60;99.90;;;;;;4962410;28;20284;-83
2023/12/25 06:53:35;;;;;;;17.87;3.87;;;8.60;99.90;;;;;;4963699;28;20239;-83
2023/12/25 06:56:03;;;;;;;20.20;4.57;;;8.60;99.90;;;;;;4989614;28;20241;-83
2023/12/25 06:58:29;;;;;;;15.13;4.03;;;8.60;99.90;;;;;;4957715;28;20238;-83
2023/12/25 07:01:08;;;;;;;18.83;4.33;;;8.60;99.90;;;;;;4942114;28;20297;-83
2023/12/25 07:03:35;;;;;;;24.37;4.53;;;8.50;99.90;;;;;;4958890;28;20221;-83
2023/12/25 07:06:01;;;;;;;18.43;4.20;;;8.50;99.90;;;;;;4966124;28;20231;-83
2023/12/25 07:08:28;;;;;;;21.37;5.13;;;8.50;99.90;;;;;;4999886;28;20786;-83
2023/12/25 07:10:55;;;;;;;22.63;4.27;;;8.50;99.90;;;;;;4964779;28;20221;-83
2023/12/25 07:13:22;;;;;;;18.57;4.37;;;8.40;99.90;;;;;;4994279;28;20320;-83
2023/12/25 07:15:49;;;;;;;16.43;3.83;;;8.40;99.90;;;;;;4968306;28;20224;-83
2023/12/25 07:18:17;;;;;;;16.40;4.20;;;8.40;99.90;;;;;;4970737;28;20228;-83
2023/12/25 07:20:44;;;;;;;20.03;4.73;;;8.40;99.90;;;;;;4965107;28;20279;-82
2023/12/25 07:23:12;;;;;;;19.60;3.70;;;8.30;99.90;;;;;;4966847;28;20609;-83
2023/12/25 07:25:39;;;;;;;19.83;4.43;;;8.30;99.90;;;;;;4988493;28;20252;-82
2023/12/25 07:28:05;;;;;;;13.00;3.40;;;8.30;99.90;;;;;;4959369;28;20234;-82
2023/12/25 07:30:32;;;;;;;18.37;3.93;;;8.30;99.90;;;;;;4996787;28;20235;-83
2023/12/25 07:32:59;;;;;;;20.80;4.40;;;8.30;99.90;;;;;;4960735;28;20245;-82
2023/12/25 07:35:27;;;;;;;15.37;4.03;;;8.30;99.90;;;;;;4962546;28;20275;-82
2023/12/25 07:37:54;;;;;;;21.00;4.57;;;8.30;99.90;;;;;;4979154;28;20236;-82
2023/12/25 07:40:21;;;;;;;17.13;5.03;;;8.20;99.90;;;;;;4962161;28;20229;-81
2023/12/25 07:42:47;;;;;;;20.53;4.20;;;8.20;99.90;;;;;;4994380;28;20316;-82
2023/12/25 07:45:14;;;;;;;19.87;4.07;;;8.20;99.90;;;;;;4957687;28;20232;-83
2023/12/25 07:47:41;;;;;;;18.97;4.50;;;8.10;99.90;;;;;;4963040;28;20324;-82
2023/12/25 07:50:09;;;;;;;21.10;4.60;;;8.10;99.90;;;;;;4960762;28;20233;-82
2023/12/25 07:52:37;;;;;;;16.53;4.10;;;8.00;99.90;;;;;;4966843;28;20217;-83
2023/12/25 07:55:04;;;;;;;15.97;4.00;;;8.00;99.90;;;;;;4962548;28;20796;-84
2023/12/25 07:57:31;;;;;;;18.83;4.17;;;8.00;99.90;;;;;;4963354;28;20782;-84
2023/12/25 07:59:57;;;;;;;19.53;4.17;;;7.90;99.90;;;;;;4997453;28;20876;-83
2023/12/25 08:02:24;;;;;;;20.63;4.03;;;7.90;99.90;;;;;;4995451;28;20256;-82
2023/12/25 08:04:51;;;;;;;21.00;4.47;;;7.80;99.90;;;;;;4955763;28;20725;-83
2023/12/25 08:07:18;;;;;;;16.97;3.87;;;7.80;99.90;;;;;;4965377;28;20262;-84
2023/12/25 08:09:47;;;;;;;22.67;4.17;;;7.80;99.90;;;;;;4968434;28;20312;-81
2023/12/25 08:12:14;;;;;;;21.10;4.40;;;7.80;99.90;;;;;;4967510;28;20308;-83
2023/12/25 08:14:41;;;;;;;20.20;4.40;;;7.70;99.90;;;;;;4970698;28;20278;-82
2023/12/25 08:17:07;;;;;;;20.47;5.13;;;7.70;99.90;;;;;;4951413;28;20230;-81
2023/12/25 08:19:34;;;;;;;20.20;4.70;;;7.60;99.90;;;;;;4970525;28;20228;-81
2023/12/25 08:22:01;;;;;;;19.10;4.87;;;7.60;99.90;;;;;;4971684;28;20233;-81
2023/12/25 08:24:28;;;;;;;20.93;4.70;;;7.60;99.90;;;;;;4956329;28;20304;-81
2023/12/25 08:26:56;;;;;;;21.13;5.20;;;7.60;99.90;;;;;;4968313;28;20233;-82
2023/12/25 08:29:22;;;;;;;25.13;5.13;;;7.60;99.90;;;;;;4974117;28;20645;-82
2023/12/25 08:31:49;;;;;;;20.63;4.10;;;7.50;99.90;;;;;;4981566;28;20250;-81
2023/12/25 08:34:16;;;;;;;21.13;4.80;;;7.50;99.90;;;;;;4961355;28;20253;-85
2023/12/25 08:36:43;;;;;;;21.43;4.67;;;7.50;99.90;;;;;;4972520;28;20497;-83
2023/12/25 08:39:10;;;;;;;20.10;4.40;;;7.50;99.90;;;;;;4974102;28;20755;-83
2023/12/25 08:41:36;;;;;;;17.93;4.10;;;7.50;99.90;;;;;;4977465;28;20857;-83
2023/12/25 08:44:06;;;;;;;17.70;4.23;;;7.50;99.90;;;;;;4977033;28;20257;-83
2023/12/25 08:46:33;;;;;;;17.47;4.00;;;7.50;99.90;;;;;;4977478;28;20224;-83
2023/12/25 08:48:59;;;;;;;17.63;5.37;;;7.50;99.90;;;;;;4979007;28;20264;-83
2023/12/25 08:51:26;;;;;;;23.33;4.80;;;7.60;99.90;;;;;;4976271;28;20234;-83
2023/12/25 08:53:53;;;;;;;18.03;5.20;;;7.60;99.90;;;;;;4981132;28;20294;-83
2023/12/25 08:56:24;;;;;;;14.23;4.47;;;7.60;99.90;;;;;;4984304;28;20229;-83
2023/12/25 08:58:51;;;;;;;23.73;4.33;;;7.60;99.90;;;;;;4980968;28;20281;-83
2023/12/25 09:01:19;;;;;;;15.80;4.23;;;7.60;99.90;;;;;;4975531;28;20329;-83
2023/12/25 09:03:46;;;;;;;26.00;5.50;;;7.60;99.90;;;;;;4969024;28;20227;-83
2023/12/25 09:06:13;;;;;;;14.67;4.23;;;7.60;99.90;;;;;;4990133;28;20280;-82
2023/12/25 09:08:40;;;;;;;18.60;4.20;;;7.60;99.90;;;;;;4959993;28;20229;-83
2023/12/25 09:11:08;;;;;;;18.73;5.03;;;7.60;99.90;;;;;;4956166;28;20237;-83
2023/12/25 09:13:35;;;;;;;18.27;4.50;;;7.60;99.90;;;;;;4975914;28;20318;-83
2023/12/25 09:16:02;;;;;;;22.97;4.60;;;7.60;99.90;;;;;;4961399;28;20944;-83
2023/12/25 09:18:30;;;;;;;22.90;5.00;;;7.60;99.90;;;;;;4971565;28;20690;-83
2023/12/25 09:20:57;;;;;;;18.47;4.10;;;7.60;99.90;;;;;;4981881;28;20324;-83
2023/12/25 09:23:24;;;;;;;20.43;4.13;;;7.60;99.90;;;;;;4977012;28;20358;-83
2023/12/25 09:25:51;;;;;;;17.27;4.43;;;7.60;99.90;;;;;;4973791;28;20240;-83
2023/12/25 09:28:18;;;;;;;22.20;5.50;;;7.60;99.90;;;;;;4975763;28;20616;-83
2023/12/25 09:30:45;;;;;;;19.97;4.50;;;7.60;99.90;;;;;;5013504;28;20222;-83
2023/12/25 09:33:12;;;;;;;17.43;4.67;;;7.70;99.90;;;;;;4977625;28;20521;-83
2023/12/25 09:35:40;;;;;;;23.60;4.13;;;7.80;99.90;;;;;;4974188;28;20230;-83
2023/12/25 09:38:07;;;;;;;20.47;4.37;;;7.80;99.90;;;;;;4977539;28;20232;-83
2023/12/25 09:40:34;;;;;;;15.73;4.00;;;7.80;99.90;;;;;;4976923;28;20721;-82
2023/12/25 09:43:02;;;;;;;15.93;4.03;;;7.90;99.90;;;;;;4977687;28;20249;-83
2023/12/25 09:45:33;;;;;;;20.57;4.63;;;8.00;99.90;;;;;;4975088;28;20248;-83
2023/12/25 09:48:00;;;;;;;20.03;4.23;;;8.10;99.90;;;;;;4973255;28;20290;-83
2023/12/25 09:50:27;;;;;;;18.57;4.83;;;8.20;99.90;;;;;;4977758;28;20619;-83
2023/12/25 09:52:55;;;;;;;19.47;4.23;;;8.20;99.90;;;;;;4972932;28;20408;-83
2023/12/25 09:55:22;;;;;;;22.83;4.93;;;8.30;99.90;;;;;;4972415;28;20236;-84
2023/12/25 09:57:51;;;;;;;16.77;4.47;;;8.40;99.90;;;;;;4973817;28;20257;-83
2023/12/25 10:00:20;;;;;;;18.33;4.67;;;8.40;99.90;;;;;;4987916;28;20225;-82
2023/12/25 10:02:49;;;;;;;20.77;4.30;;;8.50;99.90;;;;;;4968749;28;20308;-83
2023/12/25 10:05:18;;;;;;;14.93;4.73;;;8.50;99.90;;;;;;4962887;28;20231;-83
2023/12/25 10:07:45;;;;;;;21.73;4.57;;;8.50;99.90;;;;;;4971747;28;20270;-83
2023/12/25 10:10:14;;;;;;;18.90;4.90;;;8.50;99.90;;;;;;4958496;28;20399;-83
2023/12/25 10:12:44;;;;;;;26.23;5.00;;;8.40;99.90;;;;;;4963829;28;20603;-83
2023/12/25 10:15:12;;;;;;;19.43;4.47;;;8.40;99.90;;;;;;4977315;28;20232;-83
2023/12/25 10:17:39;;;;;;;16.47;4.07;;;8.40;99.90;;;;;;4978014;28;20291;-83
2023/12/25 10:20:08;;;;;;;24.97;5.30;;;8.40;99.90;;;;;;4975982;28;20368;-82
2023/12/25 10:22:37;;;;;;;18.00;4.17;;;8.30;99.90;;;;;;4974224;28;20232;-83
2023/12/25 10:25:09;;;;;;;17.17;4.07;;;8.30;99.90;;;;;;4973161;28;20263;-83
2023/12/25 10:27:38;;;;;;;21.33;4.20;;;8.20;99.90;;;;;;4971698;28;20237;-83
2023/12/25 10:30:15;;;;;;;19.20;4.30;;;8.20;99.90;;;;;;4979948;28;20823;-83
2023/12/25 10:32:42;;;;;;;22.87;5.00;;;8.30;99.90;;;;;;4990949;28;20256;-83
2023/12/25 10:35:13;;;;;;;18.03;4.30;;;8.20;99.90;;;;;;4980669;28;20236;-83
2023/12/25 10:37:41;;;;;;;21.27;5.13;;;8.30;99.90;;;;;;4972375;28;20245;-83
2023/12/25 10:40:20;;;;;;;22.13;4.23;;;8.30;99.90;;;;;;4977653;28;20255;-82
2023/12/25 10:42:50;;;;;;;20.50;4.53;;;8.30;99.90;;;;;;4971655;28;20256;-82
2023/12/25 10:45:21;;;;;;;18.47;3.93;;;8.40;99.90;;;;;;4969169;28;20308;-82
2023/12/25 10:47:50;;;;;;;21.63;4.17;;;8.40;99.90;;;;;;4975113;28;20228;-83
2023/12/25 10:50:18;;;;;;;15.47;3.70;;;8.40;99.90;;;;;;4975004;28;20230;-83
2023/12/25 10:52:48;;;;;;;21.10;4.90;;;8.40;99.90;;;;;;4980199;28;20464;-83
2023/12/25 10:55:20;;;;;;;14.70;3.90;;;8.50;99.90;;;;;;4978307;28;20316;-83
2023/12/25 10:57:47;;;;;;;20.33;4.03;;;8.50;99.90;;;;;;5002921;28;20260;-82
2023/12/25 11:00:18;;;;;;;16.63;4.13;;;8.60;99.90;;;;;;4973733;28;20227;-82
2023/12/25 11:02:46;;;;;;;17.80;4.37;;;8.60;99.90;;;;;;4992057;28;20225;-83
2023/12/25 11:05:13;;;;;;;17.60;3.63;;;8.60;99.90;;;;;;4970199;28;20251;-83
2023/12/25 11:07:40;;;;;;;15.93;4.03;;;8.60;99.90;;;;;;4987994;28;20229;-83
2023/12/25 11:10:10;;;;;;;14.93;4.27;;;8.70;99.90;;;;;;4974342;28;20524;-83
2023/12/25 11:12:38;;;;;;;16.80;4.23;;;8.70;99.90;;;;;;4981454;28;20735;-82
2023/12/25 11:15:05;;;;;;;20.33;5.10;;;8.70;99.90;;;;;;4975420;28;20760;-83
2023/12/25 11:17:34;;;;;;;21.17;4.27;;;8.70;99.90;;;;;;4989138;28;20240;-82
2023/12/25 11:20:04;;;;;;;14.80;4.17;;;8.60;99.90;;;;;;4969077;28;20228;-83
2023/12/25 11:22:36;;;;;;;16.63;4.43;;;8.60;99.90;;;;;;4980962;28;20237;-82
2023/12/25 11:25:04;;;;;;;14.93;3.70;;;8.60;99.90;;;;;;4964032;28;20692;-80
2023/12/25 11:27:30;;;;;;;17.67;4.03;;;8.60;99.90;;;;;;4940186;28;21015;-80
2023/12/25 11:30:01;;;;;;;21.20;4.30;;;8.60;99.90;;;;;;4963510;28;20308;-82
2023/12/25 11:32:30;;;;;;;16.83;3.77;;;8.60;99.90;;;;;;4997328;28;20225;-82
2023/12/25 11:34:58;;;;;;;17.43;4.07;;;8.60;99.90;;;;;;4965167;28;20229;-80
2023/12/25 11:37:25;;;;;;;17.10;4.27;;;8.60;99.90;;;;;;4968363;28;20723;-82
2023/12/25 11:39:59;;;;;;;13.47;3.97;;;8.60;99.90;;;;;;4967125;28;20336;-82
2023/12/25 11:42:25;;;;;;;15.37;3.90;;;8.60;99.90;;;;;;4964407;28;20235;-83
2023/12/25 11:44:56;;;;;;;13.37;3.30;;;8.60;99.90;;;;;;4972344;28;20226;-83
2023/12/25 11:47:28;;;;;;;18.93;3.93;;;8.70;99.90;;;;;;4984691;28;20606;-82
2023/12/25 11:49:57;;;;;;;14.13;3.40;;;8.70;99.90;;;;;;4972090;28;20229;-82
2023/12/25 11:52:46;;;;;;;10.53;3.67;;;8.80;99.90;;;;;;4984759;28;20301;-82
2023/12/25 11:55:15;;;;;;;15.90;3.27;;;8.90;99.90;;;;;;4966203;28;20320;-82
2023/12/25 11:57:43;;;;;;;14.77;3.53;;;8.90;99.90;;;;;;4970687;28;20729;-82
2023/12/25 12:00:17;;;;;;;16.20;3.90;;;9.00;99.90;;;;;;4973828;28;20228;-82
2023/12/25 12:02:45;;;;;;;16.07;4.33;;;9.00;99.90;;;;;;4986842;28;20233;-82
2023/12/25 12:05:14;;;;;;;17.77;4.40;;;9.10;99.90;;;;;;4964096;28;20314;-82
2023/12/25 12:07:41;;;;;;;20.03;4.37;;;9.10;99.90;;;;;;4966340;28;20262;-82
2023/12/25 12:10:10;;;;;;;21.50;4.07;;;9.10;99.90;;;;;;5003693;28;20240;-84
2023/12/25 12:12:37;;;;;;;17.00;4.70;;;9.20;99.90;;;;;;4970533;28;20771;-83
2023/12/25 12:15:04;;;;;;;19.03;4.47;;;9.10;99.90;;;;;;4951940;28;20263;-83
2023/12/25 12:17:34;;;;;;;18.40;4.43;;;9.10;99.90;;;;;;4958422;28;20233;-82
2023/12/25 12:20:01;;;;;;;19.53;4.63;;;9.10;99.90;;;;;;4961269;28;20709;-82
2023/12/25 12:22:29;;;;;;;15.07;3.93;;;9.10;99.90;;;;;;4961728;28;20320;-82
2023/12/25 12:25:14;;;;;;;18.60;4.23;;;9.00;99.90;;;;;;4965625;28;20297;-82
2023/12/25 12:27:41;;;;;;;21.87;4.33;;;9.00;99.90;;;;;;4959255;28;20721;-82
2023/12/25 12:30:08;;;;;;;17.57;4.67;;;9.00;99.90;;;;;;4996887;28;20868;-82
2023/12/25 12:32:37;;;;;;;20.57;4.63;;;9.00;99.90;;;;;;4976579;28;20225;-82
2023/12/25 12:35:04;;;;;;;21.83;4.60;;;8.90;99.90;;;;;;4962037;28;20229;-82
2023/12/25 12:37:32;;;;;;;16.03;4.73;;;8.90;99.90;;;;;;4966435;28;20328;-82
2023/12/25 12:40:01;;;;;;;16.07;3.73;;;8.90;99.90;;;;;;4961243;28;20703;-83
2023/12/25 12:42:28;;;;;;;21.30;3.97;;;8.90;99.90;;;;;;4962435;28;20224;-82
2023/12/25 12:44:57;;;;;;;17.03;3.80;;;8.80;99.90;;;;;;4967083;28;20234;-82
2023/12/25 12:47:23;;;;;;;16.33;3.87;;;8.80;99.90;;;;;;4963175;28;20379;-82
2023/12/25 12:49:51;;;;;;;16.90;3.70;;;8.80;99.90;;;;;;4968470;28;20275;-82
2023/12/25 12:52:17;;;;;;;16.10;3.77;;;8.70;99.90;;;;;;4960810;28;20225;-82